createdAt,value
2018-01-12T00:01:03.879Z,28.30
2018-01-12T00:03:31.491Z,32.13
2018-01-12T00:05:59.076Z,31.37
2018-01-12T00:08:26.676Z,27.87
2018-01-12T00:10:54.245Z,29.00
2018-01-12T00:13:21.809Z,30.00
2018-01-12T00:15:49.526Z,30.40
2018-01-12T00:18:17.106Z,28.90
2018-01-12T00:20:44.667Z,29.60
2018-01-12T00:23:12.284Z,29.70
2018-01-12T00:25:39.852Z,29.80
2018-01-12T00:28:07.436Z,30.17
2018-01-12T00:30:35.058Z,32.05
2018-01-12T00:33:02.681Z,32.20
2018-01-12T00:35:30.231Z,31.97
2018-01-12T00:37:57.878Z,31.00
2018-01-12T00:40:25.480Z,30.50
2018-01-12T00:42:53.079Z,29.60
2018-01-12T00:45:20.744Z,27.17
2018-01-12T00:47:48.355Z,28.70
2018-01-12T00:50:15.982Z,30.90
2018-01-12T00:52:43.626Z,30.57
2018-01-12T00:55:11.223Z,29.40
2018-01-12T00:57:38.877Z,31.10
2018-01-12T01:00:06.552Z,29.83
2018-01-12T01:02:34.115Z,26.57
2018-01-12T01:05:01.702Z,28.37
2018-01-12T01:07:29.314Z,27.63
2018-01-12T01:09:56.906Z,30.50
2018-01-12T01:12:24.476Z,28.40
2018-01-12T01:14:52.080Z,28.67
2018-01-12T01:17:19.685Z,25.07
2018-01-12T01:19:47.274Z,27.70
2018-01-12T01:22:14.878Z,29.33
2018-01-12T01:24:42.458Z,27.00
2018-01-12T01:27:10.035Z,28.27
2018-01-12T01:29:37.648Z,27.90
2018-01-12T01:32:05.273Z,26.67
2018-01-12T01:34:32.857Z,27.00
2018-01-12T01:37:00.475Z,26.97
2018-01-12T01:39:28.042Z,27.00
2018-01-12T01:41:55.611Z,26.40
2018-01-12T01:44:23.224Z,26.27
2018-01-12T01:46:50.796Z,26.90
2018-01-12T01:49:18.377Z,28.70
2018-01-12T01:51:45.994Z,28.23
2018-01-12T01:54:13.576Z,24.80
2018-01-12T01:56:41.138Z,23.90
2018-01-12T01:59:08.760Z,28.07
2018-01-12T02:01:36.536Z,26.77
2018-01-12T02:04:04.108Z,26.97
2018-01-12T02:06:32.074Z,23.30
2018-01-12T02:08:59.654Z,25.53
2018-01-12T02:11:27.234Z,24.87
2018-01-12T02:13:54.845Z,24.87
2018-01-12T02:16:22.452Z,25.60
2018-01-12T02:18:50.019Z,25.80
2018-01-12T02:21:17.645Z,28.03
2018-01-12T02:23:45.215Z,26.00
2018-01-12T02:26:12.795Z,23.93
2018-01-12T02:28:40.412Z,25.37
2018-01-12T02:31:07.973Z,22.90
2018-01-12T02:33:35.556Z,23.93
2018-01-12T02:36:03.325Z,25.20
2018-01-12T02:38:30.905Z,23.40
2018-01-12T02:40:58.520Z,21.90
2018-01-12T02:43:26.127Z,19.77
2018-01-12T02:45:53.699Z,22.03
2018-01-12T02:48:21.299Z,21.47
2018-01-12T02:50:48.923Z,25.33
2018-01-12T02:53:16.509Z,25.83
2018-01-12T02:55:44.290Z,25.13
2018-01-12T02:58:11.912Z,24.80
2018-01-12T03:00:39.493Z,27.50
2018-01-12T03:03:07.171Z,28.23
2018-01-12T03:05:35.408Z,29.00
2018-01-12T03:08:02.992Z,25.97
2018-01-12T03:10:30.572Z,24.40
2018-01-12T03:12:58.183Z,24.07
2018-01-12T03:15:25.756Z,23.90
2018-01-12T03:17:53.320Z,23.53
2018-01-12T03:20:20.934Z,21.93
2018-01-12T03:22:48.506Z,24.50
2018-01-12T03:25:16.082Z,26.40
2018-01-12T03:27:43.676Z,25.80
2018-01-12T03:30:11.243Z,27.13
2018-01-12T03:32:38.832Z,22.87
2018-01-12T03:35:06.484Z,25.70
2018-01-12T03:37:34.069Z,24.10
2018-01-12T03:40:01.648Z,24.97
2018-01-12T03:42:29.577Z,23.50
2018-01-12T03:44:57.146Z,21.47
2018-01-12T03:47:24.793Z,23.53
2018-01-12T03:49:52.416Z,24.70
2018-01-12T03:52:20.003Z,22.00
2018-01-12T03:54:47.599Z,21.07
2018-01-12T03:57:15.310Z,20.00
2018-01-12T03:59:42.875Z,21.97
2018-01-12T04:02:10.556Z,23.20
2018-01-12T04:04:38.220Z,21.50
2018-01-12T04:07:05.777Z,24.57
2018-01-12T04:09:33.386Z,23.37
2018-01-12T04:12:00.991Z,24.60
2018-01-12T04:14:28.576Z,23.63
2018-01-12T04:16:56.151Z,25.97
2018-01-12T04:19:23.982Z,26.03
2018-01-12T04:21:51.541Z,26.87
2018-01-12T04:24:19.115Z,25.50
2018-01-12T04:26:46.725Z,23.10
2018-01-12T04:29:14.388Z,25.27
2018-01-12T04:31:42.002Z,23.27
2018-01-12T04:34:09.613Z,33.13
2018-01-12T04:36:37.194Z,57.73
2018-01-12T04:39:04.857Z,45.43
2018-01-12T04:41:32.466Z,39.60
2018-01-12T04:44:00.045Z,24.50
2018-01-12T04:46:27.636Z,25.57
2018-01-12T04:48:55.242Z,24.67
2018-01-12T04:51:22.886Z,22.40
2018-01-12T04:53:50.459Z,22.90
2018-01-12T04:56:18.071Z,24.10
2018-01-12T04:58:45.655Z,25.40
2018-01-12T05:01:13.237Z,23.20
2018-01-12T05:03:40.854Z,25.00
2018-01-12T05:06:10.000Z,22.90
2018-01-12T05:08:40.073Z,27.23
2018-01-12T05:11:09.283Z,25.70
2018-01-12T05:13:38.402Z,22.50
2018-01-12T05:16:07.608Z,22.27
2018-01-12T05:18:37.571Z,23.60
2018-01-12T05:21:07.244Z,25.97
2018-01-12T05:23:36.674Z,27.40
2018-01-12T05:26:04.350Z,26.20
2018-01-12T05:28:31.924Z,23.40
2018-01-12T05:30:59.536Z,24.77
2018-01-12T05:33:27.126Z,25.43
2018-01-12T05:35:54.710Z,23.23
2018-01-12T05:38:22.337Z,22.20
2018-01-12T05:40:49.917Z,23.20
2018-01-12T05:43:17.491Z,24.67
2018-01-12T05:45:45.091Z,25.10
2018-01-12T05:48:12.680Z,23.17
2018-01-12T05:50:40.272Z,24.97
2018-01-12T05:53:07.879Z,26.00
2018-01-12T05:55:35.466Z,25.63
2018-01-12T05:58:03.058Z,27.30
2018-01-12T06:00:30.669Z,28.23
2018-01-12T06:03:10.025Z,28.03
2018-01-12T06:05:49.255Z,25.33
2018-01-12T06:08:16.816Z,23.10
2018-01-12T06:10:44.380Z,25.97
2018-01-12T06:13:11.984Z,25.10
2018-01-12T06:15:39.556Z,24.87
2018-01-12T06:18:07.131Z,29.30
2018-01-12T06:20:34.740Z,26.33
2018-01-12T06:23:02.326Z,27.70
2018-01-12T06:25:29.892Z,30.67
2018-01-12T06:27:57.494Z,30.57
2018-01-12T06:30:25.063Z,28.03
2018-01-12T06:32:52.650Z,28.70
2018-01-12T06:35:20.267Z,25.80
2018-01-12T06:37:47.852Z,29.23
2018-01-12T06:40:15.436Z,28.13
2018-01-12T06:42:43.058Z,26.70
2018-01-12T06:45:10.640Z,28.17
2018-01-12T06:47:38.217Z,25.90
2018-01-12T06:50:05.907Z,29.93
2018-01-12T06:52:33.476Z,30.67
2018-01-12T06:55:01.051Z,26.70
2018-01-12T06:57:28.672Z,27.33
2018-01-12T06:59:56.249Z,27.10
2018-01-12T07:02:23.806Z,24.10
2018-01-12T07:04:51.498Z,23.77
2018-01-12T07:07:19.072Z,25.43
2018-01-12T07:09:46.654Z,23.43
2018-01-12T07:12:14.320Z,23.77
2018-01-12T07:14:41.949Z,22.47
2018-01-12T07:17:09.530Z,23.60
2018-01-12T07:19:37.153Z,25.90
2018-01-12T07:22:16.461Z,22.27
2018-01-12T07:24:44.080Z,21.67
2018-01-12T07:27:11.744Z,21.97
2018-01-12T07:29:39.502Z,23.90
2018-01-12T07:32:07.119Z,21.13
2018-01-12T07:34:34.733Z,22.10
2018-01-12T07:37:02.315Z,23.60
2018-01-12T07:39:29.919Z,23.60
2018-01-12T07:41:57.509Z,25.10
2018-01-12T07:44:25.118Z,27.00
2018-01-12T07:46:52.745Z,23.10
2018-01-12T07:49:20.320Z,23.87
2018-01-12T07:51:47.916Z,25.17
2018-01-12T07:54:15.523Z,25.37
2018-01-12T07:56:43.137Z,26.30
2018-01-12T07:59:10.886Z,28.77
2018-01-12T08:01:44.065Z,27.23
2018-01-12T08:04:11.657Z,23.70
2018-01-12T08:06:39.251Z,18.50
2018-01-12T08:09:06.881Z,17.60
2018-01-12T08:11:34.455Z,18.87
2018-01-12T08:14:02.094Z,15.07
2018-01-12T08:16:29.805Z,13.60
2018-01-12T08:18:57.460Z,15.80
2018-01-12T08:21:25.049Z,15.03
2018-01-12T08:23:52.648Z,14.50
2018-01-12T08:26:20.263Z,13.63
2018-01-12T08:28:47.842Z,18.43
2018-01-12T08:31:15.422Z,15.67
2018-01-12T08:33:43.060Z,14.67
2018-01-12T08:36:10.645Z,15.73
2018-01-12T08:38:38.220Z,15.23
2018-01-12T08:41:05.844Z,15.47
2018-01-12T08:43:33.441Z,13.20
2018-01-12T08:46:01.021Z,12.50
2018-01-12T08:48:29.580Z,14.07
2018-01-12T08:50:57.169Z,14.07
2018-01-12T08:53:24.759Z,12.93
2018-01-12T08:55:52.375Z,13.93
2018-01-12T08:58:19.943Z,13.40
2018-01-12T09:00:47.569Z,13.20
2018-01-12T09:03:15.179Z,13.73
2018-01-12T09:05:42.761Z,13.40
2018-01-12T09:08:10.358Z,13.87
2018-01-12T09:10:37.983Z,15.57
2018-01-12T09:13:05.648Z,14.47
2018-01-12T09:15:33.241Z,13.77
2018-01-12T09:18:00.854Z,13.17
2018-01-12T09:20:34.423Z,14.90
2018-01-12T09:26:03.939Z,14.80
2018-01-12T09:28:31.549Z,17.90
2018-01-12T09:30:59.202Z,15.20
2018-01-12T09:33:26.787Z,20.97
2018-01-12T09:35:54.427Z,19.97
2018-01-12T09:38:23.034Z,23.60
2018-01-12T09:40:51.492Z,25.63
2018-01-12T09:43:19.966Z,24.97
2018-01-12T09:48:40.806Z,20.40
2018-01-12T09:51:08.378Z,20.20
2018-01-12T09:53:35.958Z,20.80
2018-01-12T09:56:03.826Z,20.90
2018-01-12T09:58:31.427Z,21.10
2018-01-12T10:01:03.109Z,19.40
2018-01-12T10:03:30.806Z,19.27
2018-01-12T10:05:58.389Z,18.10
2018-01-12T10:08:27.157Z,15.03
2018-01-12T10:10:54.816Z,13.70
2018-01-12T10:13:22.678Z,15.50
2018-01-12T10:15:50.287Z,12.90
2018-01-12T10:18:29.726Z,12.63
2018-01-12T10:23:50.435Z,12.83
2018-01-12T10:26:18.119Z,13.43
2018-01-12T10:28:57.481Z,17.35
2018-01-12T10:31:33.260Z,13.13
2018-01-12T10:34:07.938Z,12.57
2018-01-12T10:36:40.137Z,13.20
2018-01-12T10:48:47.197Z,14.50
2018-01-12T10:51:26.706Z,19.10
2018-01-12T10:53:54.330Z,19.07
2018-01-12T10:56:21.981Z,18.30
2018-01-12T10:58:49.561Z,18.47
2018-01-12T11:01:17.259Z,17.80
2018-01-12T11:03:44.864Z,16.53
2018-01-12T11:06:12.426Z,14.33
2018-01-12T11:08:40.037Z,19.53
2018-01-12T11:11:07.608Z,19.87
2018-01-12T11:13:35.190Z,17.03
2018-01-12T11:16:02.817Z,16.37
2018-01-12T11:18:30.379Z,14.00
2018-01-12T11:20:57.958Z,16.13
2018-01-12T11:23:25.575Z,17.30
2018-01-12T11:25:53.155Z,20.80
2018-01-12T11:28:20.726Z,18.53
2018-01-12T11:30:48.324Z,22.77
2018-01-12T11:33:15.918Z,24.27
2018-01-12T11:35:43.567Z,23.93
2018-01-12T11:38:11.201Z,21.13
2018-01-12T11:40:38.783Z,20.40
2018-01-12T11:43:06.440Z,16.07
2018-01-12T11:45:34.076Z,17.70
2018-01-12T11:48:01.653Z,16.27
2018-01-12T11:50:29.228Z,18.40
2018-01-12T11:52:56.840Z,17.17
2018-01-12T11:55:24.424Z,22.80
2018-01-12T11:57:52.145Z,21.20
2018-01-12T12:00:19.819Z,18.67
2018-01-12T12:02:47.391Z,19.83
2018-01-12T12:05:15.025Z,20.97
2018-01-12T12:07:42.652Z,16.50
2018-01-12T12:10:10.274Z,20.23
2018-01-12T12:12:37.851Z,15.97
2018-01-12T12:15:05.465Z,16.57
2018-01-12T12:17:33.101Z,14.83
2018-01-12T12:20:00.681Z,14.73
2018-01-12T12:22:28.251Z,16.60
2018-01-12T12:24:56.186Z,18.53
2018-01-12T12:27:23.807Z,18.00
2018-01-12T12:29:51.399Z,17.77
2018-01-12T12:32:19.019Z,17.97
2018-01-12T12:34:46.588Z,13.33
2018-01-12T12:37:14.172Z,14.23
2018-01-12T12:39:41.791Z,13.97
2018-01-12T12:42:09.368Z,13.33
2018-01-12T12:44:36.955Z,20.37
2018-01-12T12:47:04.562Z,26.47
2018-01-12T12:49:32.152Z,37.13
2018-01-12T12:51:59.726Z,49.83
2018-01-12T12:54:27.336Z,46.40
2018-01-12T12:56:55.052Z,38.97
2018-01-12T12:59:22.686Z,23.30
2018-01-12T13:01:50.302Z,27.80
2018-01-12T13:04:17.885Z,32.50
2018-01-12T13:06:45.469Z,38.33
2018-01-12T13:09:13.091Z,30.17
2018-01-12T13:11:40.671Z,24.03
2018-01-12T13:14:08.258Z,25.43
2018-01-12T13:16:35.872Z,19.43
2018-01-12T13:19:03.602Z,19.47
2018-01-12T13:21:31.163Z,21.67
2018-01-12T13:23:58.777Z,19.57
2018-01-12T13:26:26.352Z,21.10
2018-01-12T13:28:53.933Z,20.37
2018-01-12T13:31:21.860Z,20.40
2018-01-12T13:33:49.453Z,23.63
2018-01-12T13:36:17.046Z,19.50
2018-01-12T13:38:44.665Z,22.30
2018-01-12T13:41:12.235Z,23.17
2018-01-12T13:43:39.954Z,25.40
2018-01-12T13:46:07.608Z,35.13
2018-01-12T13:48:35.203Z,32.07
2018-01-12T13:51:02.802Z,34.80
2018-01-12T13:53:30.438Z,29.13
2018-01-12T13:55:58.028Z,31.00
2018-01-12T13:58:25.602Z,31.00
2018-01-12T14:00:53.234Z,22.60
2018-01-12T14:03:20.894Z,20.87
2018-01-12T14:05:48.477Z,30.57
2018-01-12T14:08:16.087Z,24.60
2018-01-12T14:10:43.669Z,22.77
2018-01-12T14:13:11.251Z,25.87
2018-01-12T14:15:38.910Z,26.05
2018-01-12T14:18:06.475Z,22.37
2018-01-12T14:20:34.057Z,20.87
2018-01-12T14:23:01.684Z,19.33
2018-01-12T14:25:29.459Z,19.90
2018-01-12T14:27:57.031Z,20.70
2018-01-12T14:30:24.688Z,21.50
2018-01-12T14:32:52.272Z,22.27
2018-01-12T14:35:19.849Z,29.10
2018-01-12T14:37:47.513Z,33.07
2018-01-12T14:40:15.135Z,27.07
2018-01-12T14:42:42.739Z,23.07
2018-01-12T14:45:10.374Z,18.90
2018-01-12T14:47:37.958Z,19.30
2018-01-12T14:50:05.537Z,20.90
2018-01-12T14:52:33.204Z,17.10
2018-01-12T14:55:00.786Z,16.50
2018-01-12T14:57:28.353Z,18.10
2018-01-12T14:59:55.960Z,20.60
2018-01-12T15:02:23.528Z,20.73
2018-01-12T15:04:51.092Z,23.10
2018-01-12T15:07:18.694Z,20.13
2018-01-12T15:09:46.275Z,30.47
2018-01-12T15:12:13.861Z,35.37
2018-01-12T15:14:41.508Z,21.83
2018-01-12T15:17:10.961Z,33.73
2018-01-12T15:19:38.661Z,35.23
2018-01-12T15:22:06.277Z,26.20
2018-01-12T15:24:33.862Z,19.20
2018-01-12T15:27:01.424Z,22.20
2018-01-12T15:29:29.033Z,21.43
2018-01-12T15:31:56.598Z,18.43
2018-01-12T15:34:24.185Z,13.67
2018-01-12T15:36:54.399Z,14.27
2018-01-12T15:39:24.195Z,14.43
2018-01-12T15:41:51.928Z,15.07
2018-01-12T15:44:19.540Z,12.73
2018-01-12T15:46:47.097Z,11.27
2018-01-12T15:49:14.672Z,13.97
2018-01-12T15:51:42.286Z,12.07
2018-01-12T15:54:09.905Z,11.03
2018-01-12T15:56:37.470Z,10.80
2018-01-12T15:59:05.072Z,10.30
2018-01-12T16:01:32.677Z,10.57
2018-01-12T16:04:00.306Z,11.77
2018-01-12T16:06:27.975Z,10.13
2018-01-12T16:08:55.554Z,11.53
2018-01-12T16:11:23.117Z,9.80
2018-01-12T16:13:50.733Z,10.00
2018-01-12T16:16:18.308Z,10.50
2018-01-12T16:18:45.873Z,11.77
2018-01-12T16:21:13.494Z,10.67
2018-01-12T16:23:41.051Z,9.63
2018-01-12T16:26:08.624Z,13.30
2018-01-12T16:28:36.238Z,11.50
2018-01-12T16:31:03.817Z,10.73
2018-01-12T16:33:31.373Z,11.00
2018-01-12T16:35:58.981Z,11.33
2018-01-12T16:38:26.546Z,9.97
2018-01-12T16:40:54.161Z,10.17
2018-01-12T16:43:21.802Z,12.53
2018-01-12T16:45:49.362Z,11.00
2018-01-12T16:48:16.994Z,9.30
2018-01-12T16:50:44.609Z,11.10
2018-01-12T16:53:12.176Z,11.37
2018-01-12T16:55:39.788Z,10.87
2018-01-12T16:58:07.401Z,10.67
2018-01-12T17:00:34.973Z,9.70
2018-01-12T17:03:02.578Z,11.03
2018-01-12T17:05:30.310Z,9.80
2018-01-12T17:07:57.900Z,11.73
2018-01-12T17:10:25.470Z,11.17
2018-01-12T17:12:53.094Z,11.20
2018-01-12T17:15:20.676Z,10.30
2018-01-12T17:17:48.271Z,10.43
2018-01-12T17:20:15.875Z,11.00
2018-01-12T17:22:43.492Z,9.83
2018-01-12T17:25:11.084Z,11.33
2018-01-12T17:27:38.678Z,9.60
2018-01-12T17:30:06.260Z,8.90
2018-01-12T17:32:33.852Z,10.77
2018-01-12T17:35:01.449Z,10.03
2018-01-12T17:37:29.061Z,10.00
2018-01-12T17:39:56.646Z,11.53
2018-01-12T17:42:24.289Z,10.73
2018-01-12T17:44:51.877Z,11.83
2018-01-12T17:47:19.516Z,9.67
2018-01-12T17:49:47.271Z,9.90
2018-01-12T17:52:14.886Z,12.43
2018-01-12T17:54:42.472Z,10.23
2018-01-12T17:57:10.179Z,11.07
2018-01-12T17:59:37.769Z,11.30
2018-01-12T18:02:05.355Z,10.70
2018-01-12T18:04:32.984Z,12.93
2018-01-12T18:07:00.546Z,13.50
2018-01-12T18:09:28.102Z,13.77
2018-01-12T18:11:55.713Z,13.17
2018-01-12T18:14:23.305Z,13.17
2018-01-12T18:16:50.885Z,13.27
2018-01-12T18:19:18.496Z,11.90
2018-01-12T18:21:46.083Z,13.70
2018-01-12T18:24:13.668Z,14.00
2018-01-12T18:26:41.471Z,14.43
2018-01-12T18:29:09.045Z,15.83
2018-01-12T18:31:36.637Z,16.23
2018-01-12T18:34:04.279Z,13.60
2018-01-12T18:36:31.893Z,14.97
2018-01-12T18:38:59.468Z,14.67
2018-01-12T18:41:27.080Z,16.17
2018-01-12T18:43:54.664Z,17.83
2018-01-12T18:46:22.234Z,14.93
2018-01-12T18:48:49.841Z,14.73
2018-01-12T18:51:17.413Z,12.53
2018-01-12T18:53:44.982Z,14.23
2018-01-12T18:56:12.574Z,14.33
2018-01-12T18:58:40.151Z,13.47
2018-01-12T19:01:07.718Z,14.20
2018-01-12T19:03:35.334Z,13.17
2018-01-12T19:06:02.930Z,15.67
2018-01-12T19:08:30.532Z,13.40
2018-01-12T19:10:58.140Z,13.60
2018-01-12T19:13:25.723Z,15.20
2018-01-12T19:15:53.389Z,15.10
2018-01-12T19:18:21.073Z,16.00
2018-01-12T19:20:48.670Z,15.73
2018-01-12T19:23:16.249Z,12.73
2018-01-12T19:25:43.874Z,13.33
2018-01-12T19:28:11.453Z,13.70
2018-01-12T19:30:39.001Z,14.07
2018-01-12T19:33:06.625Z,14.50
2018-01-12T19:35:34.192Z,13.33
2018-01-12T19:38:01.769Z,12.60
2018-01-12T19:40:29.380Z,13.17
2018-01-12T19:42:57.072Z,13.77
2018-01-12T19:45:24.641Z,11.43
2018-01-12T19:47:52.248Z,13.30
2018-01-12T19:50:19.828Z,12.00
2018-01-12T19:52:47.398Z,14.30
2018-01-12T19:55:14.985Z,13.90
2018-01-12T19:57:42.545Z,13.27
2018-01-12T20:00:10.119Z,14.10
2018-01-12T20:02:37.736Z,10.77
2018-01-12T20:05:05.291Z,10.90
2018-01-12T20:07:32.845Z,6.90
2018-01-12T20:10:00.447Z,11.50
2018-01-12T20:12:28.004Z,12.70
2018-01-12T20:14:55.864Z,13.10
2018-01-12T20:17:23.526Z,14.80
2018-01-12T20:19:51.160Z,12.77
2018-01-12T20:22:18.719Z,13.70
2018-01-12T20:24:46.321Z,13.40
2018-01-12T20:27:13.892Z,14.03
2018-01-12T20:29:41.458Z,12.33
2018-01-12T20:32:09.075Z,11.97
2018-01-12T20:34:36.659Z,11.30
2018-01-12T20:37:04.229Z,13.20
2018-01-12T20:39:31.833Z,9.70
2018-01-12T20:41:59.410Z,11.17
2018-01-12T20:44:26.985Z,12.73
2018-01-12T20:46:54.574Z,12.83
2018-01-12T20:49:22.169Z,12.60
2018-01-12T20:51:49.773Z,13.60
2018-01-12T20:54:17.430Z,12.93
2018-01-12T20:56:45.012Z,12.50
2018-01-12T20:59:12.589Z,12.60
2018-01-12T21:01:40.417Z,12.73
2018-01-12T21:04:07.979Z,13.53
2018-01-12T21:06:35.747Z,12.67
2018-01-12T21:09:03.595Z,14.90
2018-01-12T21:11:31.147Z,12.07
2018-01-12T21:13:58.719Z,12.70
2018-01-12T21:16:26.303Z,14.47
2018-01-12T21:18:53.881Z,13.63
2018-01-12T21:21:21.443Z,13.17
2018-01-12T21:23:49.161Z,13.33
2018-01-12T21:26:16.821Z,14.10
2018-01-12T21:28:44.395Z,14.77
2018-01-12T21:31:12.143Z,13.63
2018-01-12T21:33:39.708Z,13.17
2018-01-12T21:36:07.484Z,12.70
2018-01-12T21:38:35.095Z,13.13
2018-01-12T21:41:02.675Z,12.43
2018-01-12T21:43:30.246Z,12.97
2018-01-12T21:45:57.918Z,11.90
2018-01-12T21:48:26.264Z,12.80
2018-01-12T21:50:53.819Z,12.33
2018-01-12T21:53:21.537Z,13.13
2018-01-12T21:55:49.102Z,11.87
2018-01-12T21:58:16.848Z,11.60
2018-01-12T22:00:44.435Z,13.27
2018-01-12T22:03:12.002Z,11.10
2018-01-12T22:05:39.547Z,12.80
2018-01-12T22:08:07.362Z,12.50
2018-01-12T22:10:35.172Z,13.57
2018-01-12T22:13:02.832Z,12.37
2018-01-12T22:15:30.550Z,10.10
2018-01-12T22:17:58.134Z,11.80
2018-01-12T22:20:25.820Z,13.77
2018-01-12T22:22:53.457Z,14.33
2018-01-12T22:25:21.158Z,11.77
2018-01-12T22:27:48.733Z,13.23
2018-01-12T22:30:16.456Z,12.67
2018-01-12T22:32:44.036Z,12.33
2018-01-12T22:35:11.613Z,12.20
2018-01-12T22:37:39.430Z,12.63
2018-01-12T22:40:07.007Z,12.90
2018-01-12T22:42:34.557Z,12.40
2018-01-12T22:45:02.169Z,13.47
2018-01-12T22:47:29.895Z,12.33
2018-01-12T22:49:57.497Z,11.97
2018-01-12T22:52:25.213Z,13.57
2018-01-12T22:54:52.887Z,11.30
2018-01-12T22:57:20.467Z,11.60
2018-01-12T22:59:48.071Z,12.90
2018-01-12T23:02:15.866Z,12.17
2018-01-12T23:04:43.456Z,11.20
2018-01-12T23:07:11.167Z,12.00
2018-01-12T23:09:38.895Z,11.87
2018-01-12T23:12:06.566Z,12.20
2018-01-12T23:14:34.386Z,11.60
2018-01-12T23:17:01.966Z,12.20
2018-01-12T23:19:29.707Z,10.87
2018-01-12T23:21:57.584Z,11.80
2018-01-12T23:24:25.240Z,11.47
2018-01-12T23:26:52.795Z,13.70
2018-01-12T23:29:20.394Z,12.03
2018-01-12T23:31:47.966Z,12.50
2018-01-12T23:34:15.534Z,11.93
2018-01-12T23:36:43.349Z,13.20
2018-01-12T23:39:11.000Z,10.90
2018-01-12T23:41:38.880Z,10.63
2018-01-12T23:44:06.482Z,10.13
2018-01-12T23:46:34.048Z,10.67
2018-01-12T23:49:01.614Z,8.63
2018-01-12T23:51:29.216Z,11.13
2018-01-12T23:53:56.780Z,10.17
2018-01-12T23:56:24.436Z,11.57
2018-01-12T23:58:52.086Z,10.80
